createdAt,value
2023-08-18T00:02:17.093Z,14.07
2023-08-18T00:04:44.047Z,14.68
2023-08-18T00:07:11.473Z,17.27
2023-08-18T00:09:38.442Z,17.00
2023-08-18T00:12:06.318Z,17.35
2023-08-18T00:14:34.108Z,16.73
2023-08-18T00:17:00.989Z,17.60
2023-08-18T00:19:27.835Z,17.58
2023-08-18T00:21:54.765Z,19.27
2023-08-18T00:24:21.725Z,20.70
2023-08-18T00:26:48.695Z,18.45
2023-08-18T00:29:15.878Z,18.90
2023-08-18T00:31:43.194Z,16.95
2023-08-18T00:34:13.059Z,17.10
2023-08-18T00:36:39.958Z,16.30
2023-08-18T00:39:06.835Z,15.25
2023-08-18T00:41:33.975Z,16.83
2023-08-18T00:44:00.814Z,14.52
2023-08-18T00:46:28.419Z,15.30
2023-08-18T00:48:58.839Z,13.95
2023-08-18T00:51:26.044Z,14.30
2023-08-18T00:56:21.478Z,12.45
2023-08-18T00:58:48.477Z,13.50
2023-08-18T01:01:15.393Z,13.13
2023-08-18T01:03:42.509Z,14.95
2023-08-18T01:06:09.520Z,14.38
2023-08-18T01:08:36.771Z,12.23
2023-08-18T01:11:43.127Z,12.65
2023-08-18T01:14:49.181Z,12.30
2023-08-18T01:17:27.267Z,13.60
2023-08-18T01:19:55.578Z,14.60
2023-08-18T01:22:23.708Z,16.52
2023-08-18T01:24:50.656Z,17.20
2023-08-18T01:27:18.719Z,16.88
2023-08-18T01:29:45.646Z,17.05
2023-08-18T01:32:14.356Z,15.93
2023-08-18T01:34:43.382Z,15.88
2023-08-18T01:37:11.200Z,19.23
2023-08-18T01:39:38.634Z,17.15
2023-08-18T05:21:05.747Z,18.27
2023-08-18T05:23:32.801Z,16.05
2023-08-18T05:26:01.084Z,17.85
2023-08-18T05:28:32.200Z,15.90
2023-08-18T05:30:59.357Z,15.07
2023-08-18T05:33:26.318Z,14.70
2023-08-18T05:35:53.236Z,15.98
2023-08-18T05:38:20.106Z,14.18
2023-08-18T05:40:50.115Z,14.48
2023-08-18T05:43:18.089Z,12.38
2023-08-18T05:45:47.347Z,12.48
2023-08-18T05:48:15.000Z,11.68
2023-08-18T05:50:42.593Z,10.75
2023-08-18T05:53:09.491Z,9.93
2023-08-18T05:55:36.456Z,11.20
2023-08-18T05:58:05.105Z,10.38
2023-08-18T06:00:32.627Z,10.18
2023-08-18T06:03:00.446Z,8.30
2023-08-18T06:05:28.693Z,10.20
2023-08-18T06:07:56.258Z,10.18
2023-08-18T06:10:23.420Z,13.55
2023-08-18T06:12:50.487Z,11.75
2023-08-18T06:15:21.877Z,11.05
2023-08-18T06:17:50.211Z,10.52
2023-08-18T06:20:17.394Z,12.40
2023-08-18T06:22:44.377Z,13.70
2023-08-18T06:25:12.555Z,10.80
2023-08-18T06:27:39.848Z,11.75
2023-08-18T06:30:07.290Z,11.93
2023-08-18T06:32:34.486Z,10.57
2023-08-18T06:35:01.461Z,10.18
2023-08-18T06:37:28.527Z,11.05
2023-08-18T06:39:55.549Z,10.30
2023-08-18T06:42:22.441Z,10.02
2023-08-18T06:44:50.969Z,11.98
2023-08-18T06:47:17.944Z,9.95
2023-08-18T06:49:44.978Z,9.35
2023-08-18T06:52:12.228Z,9.18
2023-08-18T06:54:41.667Z,9.35
2023-08-18T06:57:08.886Z,11.68
2023-08-18T06:59:35.862Z,10.02
2023-08-18T07:02:02.945Z,8.75
2023-08-18T07:04:30.474Z,8.35
2023-08-18T07:06:57.932Z,8.23
2023-08-18T07:09:24.798Z,8.63
2023-08-18T07:11:51.696Z,7.75
2023-08-18T07:14:18.555Z,7.70
2023-08-18T07:16:45.757Z,7.93
2023-08-18T07:19:12.977Z,7.80
2023-08-18T07:21:39.906Z,6.07
2023-08-18T07:24:07.235Z,6.68
2023-08-18T07:26:34.250Z,6.13
2023-08-18T07:29:01.074Z,5.68
2023-08-18T07:31:28.000Z,7.57
2023-08-18T07:33:54.914Z,7.07
2023-08-18T07:36:21.861Z,7.28
2023-08-18T07:38:48.634Z,7.32
2023-08-18T07:41:15.550Z,6.55
2023-08-18T07:43:42.431Z,7.57
2023-08-18T07:46:11.629Z,7.65
2023-08-18T07:48:39.967Z,8.25
2023-08-18T07:51:07.171Z,7.53
2023-08-18T07:53:34.157Z,8.30
2023-08-18T07:56:01.058Z,8.45
2023-08-18T07:58:28.091Z,9.00
2023-08-18T08:00:57.984Z,9.45
2023-08-18T08:03:25.593Z,8.27
2023-08-18T08:05:52.646Z,9.00
2023-08-18T08:08:19.483Z,8.60
2023-08-18T08:10:46.512Z,9.23
2023-08-18T08:13:13.382Z,10.02
2023-08-18T08:15:40.414Z,9.50
2023-08-18T08:18:12.260Z,9.70
2023-08-18T08:20:39.385Z,10.20
2023-08-18T08:23:06.347Z,11.50
2023-08-18T08:25:34.691Z,10.50
2023-08-18T08:28:03.223Z,9.82
2023-08-18T08:33:00.381Z,8.13
2023-08-18T08:35:29.131Z,9.73
2023-08-18T08:37:57.573Z,9.25
2023-08-18T08:40:25.145Z,10.05
2023-08-18T08:43:04.270Z,9.15
2023-08-18T08:45:33.180Z,10.07
2023-08-18T08:48:04.273Z,9.52
2023-08-18T08:50:34.740Z,8.82
2023-08-18T08:53:02.766Z,9.73
2023-08-18T08:55:34.054Z,10.15
2023-08-18T08:58:02.701Z,9.18
2023-08-18T09:00:30.468Z,8.25
2023-08-18T09:03:02.923Z,8.85
2023-08-18T09:05:33.587Z,9.00
2023-08-18T09:08:01.199Z,10.55
2023-08-18T09:10:28.488Z,9.13
2023-08-18T09:12:56.374Z,10.45
2023-08-18T09:15:24.721Z,9.32
2023-08-18T09:17:52.567Z,12.05
2023-08-18T09:20:20.329Z,12.73
2023-08-18T09:22:47.646Z,11.73
2023-08-18T09:25:14.964Z,10.95
2023-08-18T09:27:42.974Z,16.55
2023-08-18T09:30:10.600Z,15.40
2023-08-18T09:32:38.444Z,16.08
2023-08-18T09:35:12.006Z,13.85
2023-08-18T09:37:40.186Z,15.63
2023-08-18T09:40:08.617Z,14.93
2023-08-18T09:42:35.989Z,13.27
2023-08-18T09:45:03.348Z,14.80
2023-08-18T09:47:31.747Z,16.88
2023-08-18T09:50:03.073Z,12.65
2023-08-18T09:52:34.462Z,15.02
2023-08-18T09:55:14.387Z,15.88
2023-08-18T09:57:51.525Z,15.60
2023-08-18T10:00:21.154Z,15.07
2023-08-18T10:02:50.445Z,13.45
2023-08-18T10:05:17.962Z,11.48
2023-08-18T10:07:46.685Z,14.55
2023-08-18T10:10:15.140Z,16.02
2023-08-18T10:12:44.196Z,16.60
2023-08-18T10:15:12.475Z,12.40
2023-08-18T10:20:13.952Z,16.48
2023-08-18T10:22:43.131Z,15.45
2023-08-18T10:25:10.209Z,15.25
2023-08-18T10:27:39.462Z,14.27
2023-08-18T10:30:09.379Z,14.57
2023-08-18T10:32:37.269Z,15.43
2023-08-18T10:35:25.030Z,13.15
2023-08-18T10:38:01.883Z,15.43
2023-08-18T10:40:31.627Z,12.65
2023-08-18T10:43:07.253Z,13.55
2023-08-18T10:45:34.471Z,14.55
2023-08-18T10:48:04.876Z,11.25
2023-08-18T10:50:35.805Z,12.48
2023-08-18T10:53:05.604Z,14.13
2023-08-18T10:55:33.208Z,15.98
2023-08-18T10:58:00.795Z,12.85
2023-08-18T11:00:35.119Z,13.48
2023-08-18T11:03:02.511Z,12.80
2023-08-18T11:05:33.772Z,12.10
2023-08-18T11:08:03.216Z,13.63
2023-08-18T11:10:30.909Z,12.15
2023-08-18T11:13:01.199Z,11.90
2023-08-18T11:15:28.497Z,11.82
2023-08-18T11:17:55.549Z,12.95
2023-08-18T11:20:22.843Z,12.93
2023-08-18T11:22:53.694Z,13.40
2023-08-18T11:25:26.389Z,12.70
2023-08-18T11:27:54.632Z,11.07
2023-08-18T11:30:22.679Z,12.40
2023-08-18T11:32:50.280Z,12.38
2023-08-18T11:35:20.060Z,10.88
2023-08-18T11:37:49.016Z,11.32
2023-08-18T11:40:18.950Z,12.85
2023-08-18T11:42:48.173Z,11.15
2023-08-18T11:45:20.265Z,12.73
2023-08-18T11:47:49.604Z,10.65
2023-08-18T11:50:22.589Z,10.07
2023-08-18T11:52:53.410Z,9.75
2023-08-18T11:55:44.394Z,10.73
2023-08-18T11:58:15.896Z,10.35
2023-08-18T12:00:47.874Z,10.70
2023-08-18T12:03:26.498Z,11.02
2023-08-18T12:05:56.210Z,11.30
2023-08-18T12:08:23.445Z,11.65
2023-08-18T12:10:51.665Z,10.93
2023-08-18T12:13:19.241Z,11.70
2023-08-18T12:15:46.297Z,10.23
2023-08-18T12:18:13.206Z,10.57
2023-08-18T12:20:40.282Z,9.82
2023-08-18T12:23:07.328Z,9.98
2023-08-18T12:25:34.235Z,11.27
2023-08-18T12:28:01.083Z,10.70
2023-08-18T12:30:28.154Z,9.55
2023-08-18T12:32:55.128Z,9.75
2023-08-18T12:35:22.213Z,10.68
2023-08-18T12:37:50.037Z,9.70
2023-08-18T12:40:17.116Z,8.93
2023-08-18T12:42:44.055Z,9.80
2023-08-18T12:45:11.769Z,9.00
2023-08-18T12:50:07.540Z,9.88
2023-08-18T12:52:34.509Z,9.68
2023-08-18T12:55:01.546Z,10.02
2023-08-18T12:57:28.516Z,9.35
2023-08-18T12:59:55.463Z,9.07
2023-08-18T13:02:22.269Z,9.07
2023-08-18T13:04:49.329Z,8.60
2023-08-18T13:07:18.668Z,9.23
2023-08-18T13:09:46.280Z,9.70
2023-08-18T13:12:32.195Z,8.93
2023-08-18T13:14:59.188Z,9.32
2023-08-18T13:17:26.206Z,8.93
2023-08-18T13:19:57.319Z,8.57
2023-08-18T13:22:25.013Z,8.65
2023-08-18T13:24:54.761Z,9.15
2023-08-18T13:27:25.012Z,9.35
2023-08-18T13:29:52.683Z,8.63
2023-08-18T13:32:19.657Z,8.57
2023-08-18T13:34:48.234Z,8.38
2023-08-18T13:37:15.226Z,8.88
2023-08-18T13:39:42.168Z,8.40
2023-08-18T13:42:09.097Z,8.73
2023-08-18T13:44:35.956Z,9.23
2023-08-18T13:47:02.982Z,7.82
2023-08-18T13:49:29.933Z,8.65
2023-08-18T13:51:56.790Z,7.95
2023-08-18T13:54:23.702Z,8.48
2023-08-18T13:56:50.607Z,8.05
2023-08-18T13:59:17.500Z,8.05
2023-08-18T14:01:44.471Z,8.00
2023-08-18T14:04:11.607Z,8.13
2023-08-18T14:06:38.520Z,8.02
2023-08-18T14:09:05.743Z,8.70
2023-08-18T14:11:33.701Z,8.13
2023-08-18T14:14:00.650Z,7.63
2023-08-18T14:16:27.740Z,7.78
2023-08-18T14:18:56.223Z,7.03
2023-08-18T14:21:23.347Z,7.32
2023-08-18T14:23:50.324Z,7.68
2023-08-18T14:26:21.342Z,7.78
2023-08-18T14:28:48.474Z,7.65
2023-08-18T14:31:15.400Z,7.70
2023-08-18T14:33:47.053Z,8.27
2023-08-18T14:36:16.027Z,7.55
2023-08-18T14:38:43.410Z,8.35
2023-08-18T14:41:11.041Z,8.73
2023-08-18T14:43:38.025Z,8.02
2023-08-18T14:46:09.009Z,7.88
2023-08-18T14:48:36.567Z,7.93
2023-08-18T14:51:05.692Z,8.05
2023-08-18T14:53:32.784Z,8.52
2023-08-18T14:55:59.709Z,8.18
2023-08-18T14:58:27.932Z,9.20
2023-08-18T15:00:55.353Z,8.93
2023-08-18T15:03:22.423Z,8.88
2023-08-18T15:05:50.566Z,7.78
2023-08-18T15:08:17.727Z,8.43
2023-08-18T15:10:44.913Z,7.68
2023-08-18T15:13:11.825Z,7.80
2023-08-18T15:15:38.757Z,8.43
2023-08-18T15:18:06.139Z,8.10
2023-08-18T15:20:33.040Z,8.68
2023-08-18T15:23:00.323Z,8.57
2023-08-18T15:25:27.437Z,8.23
2023-08-18T15:27:54.927Z,8.35
2023-08-18T15:30:22.551Z,8.10
2023-08-18T15:32:49.512Z,8.27
2023-08-18T15:35:16.483Z,9.07
2023-08-18T15:37:43.429Z,9.20
2023-08-18T15:40:10.726Z,8.60
2023-08-18T15:42:38.086Z,8.23
2023-08-18T15:45:05.572Z,9.25
2023-08-18T15:47:33.161Z,8.88
2023-08-18T15:52:27.515Z,8.93
2023-08-18T15:54:54.459Z,8.65
2023-08-18T15:57:21.371Z,9.13
2023-08-18T15:59:48.474Z,8.57
2023-08-18T16:02:15.404Z,9.10
2023-08-18T16:04:42.344Z,9.02
2023-08-18T16:07:09.265Z,8.60
2023-08-18T16:09:36.170Z,8.70
2023-08-18T16:12:03.187Z,8.98
2023-08-18T16:16:59.869Z,8.50
2023-08-18T16:19:28.352Z,8.65
2023-08-18T16:21:55.219Z,8.43
2023-08-18T16:24:22.079Z,8.57
2023-08-18T16:26:48.962Z,9.05
2023-08-18T16:29:16.543Z,7.70
2023-08-18T16:31:43.455Z,8.15
2023-08-18T16:34:10.339Z,8.27
2023-08-18T16:36:37.244Z,9.05
2023-08-18T16:39:04.737Z,8.05
2023-08-18T16:41:31.712Z,8.80
2023-08-18T16:43:58.586Z,8.23
2023-08-18T16:46:26.337Z,9.32
2023-08-18T16:48:53.179Z,9.05
2023-08-18T16:51:20.058Z,9.55
2023-08-18T16:53:46.977Z,8.98
2023-08-18T16:56:13.952Z,8.65
2023-08-18T16:58:42.056Z,9.05
2023-08-18T17:01:08.946Z,10.00
2023-08-18T17:03:35.746Z,9.18
2023-08-18T17:06:02.717Z,9.15
2023-08-18T17:08:29.570Z,9.48
2023-08-18T17:10:56.903Z,8.68
2023-08-18T17:13:23.904Z,9.27
2023-08-18T17:15:52.900Z,9.50
2023-08-18T17:18:19.973Z,7.82
2023-08-18T17:20:46.977Z,8.95
2023-08-18T17:23:14.013Z,9.18
2023-08-18T17:25:40.909Z,9.07
2023-08-18T17:28:07.829Z,8.90
2023-08-18T17:30:34.809Z,9.05
2023-08-18T17:33:01.855Z,8.90
2023-08-18T17:35:28.836Z,9.60
2023-08-18T17:37:57.424Z,10.05
2023-08-18T17:40:24.425Z,9.60
2023-08-18T17:42:51.360Z,8.15
2023-08-18T17:45:19.005Z,9.60
2023-08-18T17:47:45.935Z,8.73
2023-08-18T17:50:13.134Z,9.18
2023-08-18T17:52:40.032Z,9.02
2023-08-18T17:55:07.619Z,9.40
2023-08-18T17:57:34.662Z,9.45
2023-08-18T18:00:01.726Z,9.10
2023-08-18T18:02:30.385Z,10.05
2023-08-18T18:04:58.004Z,9.57
2023-08-18T18:07:24.853Z,8.30
2023-08-18T18:09:51.713Z,10.00
2023-08-18T18:12:18.606Z,9.10
2023-08-18T18:14:47.062Z,8.75
2023-08-18T18:17:16.136Z,8.63
2023-08-18T18:19:43.261Z,9.07
2023-08-18T18:22:11.320Z,9.77
2023-08-18T18:24:39.475Z,8.98
2023-08-18T18:27:11.158Z,9.07
2023-08-18T18:29:41.843Z,10.07
2023-08-18T18:32:11.319Z,9.43
2023-08-18T18:34:38.581Z,9.93
2023-08-18T18:37:10.298Z,10.05
2023-08-18T18:39:37.782Z,10.10
2023-08-18T18:42:05.661Z,10.30
2023-08-18T18:44:36.318Z,9.45
2023-08-18T18:47:04.300Z,8.50
2023-08-18T18:49:31.138Z,8.52
2023-08-18T18:51:58.046Z,9.20
2023-08-18T18:54:24.994Z,8.80
2023-08-18T18:56:51.892Z,10.98
2023-08-18T18:59:19.007Z,11.27
2023-08-18T19:01:45.993Z,11.15
2023-08-18T19:04:12.953Z,10.05
2023-08-18T19:06:39.812Z,9.70
2023-08-18T19:09:06.746Z,10.13
2023-08-18T19:11:33.767Z,9.75
2023-08-18T19:14:00.607Z,10.05
2023-08-18T19:16:27.716Z,11.45
2023-08-18T19:18:54.544Z,10.30
2023-08-18T19:21:21.836Z,12.30
2023-08-18T19:23:50.405Z,13.07
2023-08-18T19:26:17.348Z,11.23
2023-08-18T19:28:44.185Z,11.27
2023-08-18T19:31:11.335Z,10.27
2023-08-18T19:33:38.382Z,11.23
2023-08-18T19:36:05.659Z,10.73
2023-08-18T19:38:32.792Z,10.63
2023-08-18T19:40:59.787Z,11.65
2023-08-18T19:43:26.794Z,12.23
2023-08-18T19:46:01.585Z,12.48
2023-08-18T19:48:29.491Z,11.85
2023-08-18T19:50:57.173Z,12.77
2023-08-18T19:53:25.065Z,12.13
2023-08-18T19:55:52.186Z,11.82
2023-08-18T19:58:19.222Z,12.50
2023-08-18T20:00:47.086Z,11.38
2023-08-18T20:03:14.141Z,11.35
2023-08-18T20:05:41.040Z,12.18
2023-08-18T20:08:10.582Z,14.27
2023-08-18T20:10:37.524Z,12.82
2023-08-18T20:13:04.931Z,13.00
2023-08-18T20:15:31.905Z,13.88
2023-08-18T20:17:58.884Z,13.57
2023-08-18T20:20:25.817Z,13.60
2023-08-18T20:22:52.873Z,11.60
2023-08-18T20:25:19.917Z,13.00
2023-08-18T20:27:47.377Z,12.45
2023-08-18T20:30:14.390Z,12.23
2023-08-18T20:32:41.446Z,12.65
2023-08-18T20:35:10.817Z,12.98
2023-08-18T20:37:38.648Z,12.57
2023-08-18T20:40:07.955Z,12.77
2023-08-18T20:42:38.566Z,13.18
2023-08-18T20:45:05.853Z,12.65
2023-08-18T20:47:32.823Z,13.65
2023-08-18T20:49:59.837Z,14.38
2023-08-18T20:52:26.796Z,14.45
2023-08-18T20:54:53.669Z,14.52
2023-08-18T20:57:20.892Z,16.48
2023-08-18T20:59:47.821Z,16.38
2023-08-18T21:02:14.787Z,16.58
2023-08-18T21:04:41.589Z,17.98
2023-08-18T21:07:08.657Z,16.27
2023-08-18T21:09:35.507Z,16.17
2023-08-18T21:12:02.428Z,18.00
2023-08-18T21:14:29.351Z,18.17
2023-08-18T21:16:56.326Z,18.20
2023-08-18T21:19:23.129Z,19.30
2023-08-18T21:21:50.132Z,17.48
2023-08-18T21:24:17.291Z,18.30
2023-08-18T21:26:44.264Z,17.63
2023-08-18T21:29:11.245Z,19.42
2023-08-18T21:31:38.243Z,17.55
2023-08-18T21:34:05.144Z,18.50
2023-08-18T21:36:32.084Z,20.30
2023-08-18T21:39:05.858Z,20.55
2023-08-18T21:41:33.845Z,20.70
2023-08-18T21:44:02.216Z,20.92
2023-08-18T21:46:29.435Z,19.98
2023-08-18T21:48:56.297Z,18.15
2023-08-18T21:51:23.453Z,19.70
2023-08-18T21:53:50.364Z,17.92
2023-08-18T21:56:17.302Z,19.25
2023-08-18T21:58:44.163Z,18.88
2023-08-18T22:01:11.516Z,17.83
2023-08-18T22:03:38.602Z,18.35
2023-08-18T22:06:05.879Z,19.15
2023-08-18T22:08:32.802Z,20.70
2023-08-18T22:10:59.748Z,18.17
2023-08-18T22:13:26.684Z,18.38
2023-08-18T22:15:54.134Z,18.55
2023-08-18T22:18:21.048Z,18.23
2023-08-18T22:20:50.650Z,17.50
2023-08-18T22:23:17.676Z,18.10
2023-08-18T22:25:45.343Z,18.85
2023-08-18T22:28:13.618Z,18.60
2023-08-18T22:30:41.616Z,17.10
2023-08-18T22:33:08.736Z,16.38
2023-08-18T22:35:35.694Z,18.33
2023-08-18T22:38:02.585Z,17.13
2023-08-18T22:40:29.876Z,16.65
2023-08-18T22:42:56.796Z,17.20
2023-08-18T22:45:23.879Z,18.65
2023-08-18T22:47:50.854Z,26.38
2023-08-18T22:50:18.136Z,19.65
2023-08-18T22:52:45.065Z,19.67
2023-08-18T22:55:12.111Z,21.27
2023-08-18T22:57:39.201Z,21.80
2023-08-18T23:00:09.445Z,21.00
2023-08-18T23:02:36.776Z,19.92
2023-08-18T23:05:03.931Z,20.02
2023-08-18T23:07:31.055Z,20.33
2023-08-18T23:09:58.129Z,21.70
2023-08-18T23:12:25.647Z,22.30
2023-08-18T23:14:52.541Z,23.67
2023-08-18T23:17:19.513Z,22.33
2023-08-18T23:19:46.427Z,21.67
2023-08-18T23:22:13.292Z,25.08
2023-08-18T23:24:40.215Z,22.58
2023-08-18T23:27:07.061Z,23.85
2023-08-18T23:29:34.066Z,25.95
2023-08-18T23:32:00.928Z,24.98
2023-08-18T23:34:27.842Z,26.10
2023-08-18T23:36:54.690Z,25.45
2023-08-18T23:39:21.578Z,24.50
2023-08-18T23:41:48.512Z,24.25
2023-08-18T23:44:15.369Z,24.00
2023-08-18T23:46:42.326Z,24.05
2023-08-18T23:49:09.247Z,24.55
2023-08-18T23:51:36.345Z,25.23
2023-08-18T23:54:03.709Z,23.02
2023-08-18T23:56:30.556Z,24.50
2023-08-18T23:58:57.456Z,24.10
